Kansas City, Missouri
Traffic Map
Current Weather Conditions
Kansas City, Missouri
Overcast
Overcast
33°
Feels Like: 29°
Wind Chill: 29° Ceiling: 1100
Heat Index: 33° Visibility: 7mi
Dew Point: 29° Wind: 5mph
Humidity: 85% Direction: 70° (ENE)
Pressure: 30.21in Gusts: 0mph
Raw Report DataKMKC 182154Z 07004KT 7SM OVC011 01/M02 A3021 RMK AO2 SLP236 T00061017
Traffic Incident Summary
Active as of:
Severity:
Category:
InformationThere was an issue retrieving the traffic information for this location. Please try a different location or try again shortly.
Advertisements
Track Severe Weather on mobile